Time;durP1;ratioP1;P1;durP2;ratioP2;P2;SDS_P1;SDS_P2;PMS_P1;PMS_P2;Temp;Humidity;BMP_temperature;BMP_pressure;BME280_temperature;BME280_humidity;BME280_pressure;Samples;Min_cycle;Max_cycle;Signal;HPM_P1;HPM_P2
2023/12/29 00:00:32;;;;;;;3.50;2.33;;;8.60;78.20;;;;;;4959047;28;20215;-83
2023/12/29 00:03:01;;;;;;;7.10;3.27;;;8.60;78.30;;;;;;4949782;28;20678;-83
2023/12/29 00:05:30;;;;;;;5.77;2.90;;;8.50;78.30;;;;;;4957768;28;20269;-83
2023/12/29 00:08:00;;;;;;;2.00;1.77;;;8.50;79.20;;;;;;4949236;28;20730;-84
2023/12/29 00:10:30;;;;;;;4.10;2.27;;;8.50;78.30;;;;;;4955291;28;20207;-84
2023/12/29 00:12:58;;;;;;;2.30;1.73;;;8.50;79.20;;;;;;4956454;28;20198;-83
2023/12/29 00:15:27;;;;;;;3.17;2.00;;;8.50;78.50;;;;;;4953258;28;20730;-84
2023/12/29 00:17:56;;;;;;;3.23;2.97;;;8.50;78.50;;;;;;4958670;28;20674;-84
2023/12/29 00:20:28;;;;;;;2.43;2.30;;;8.50;78.50;;;;;;4956686;28;20336;-84
2023/12/29 00:23:10;;;;;;;3.37;3.07;;;8.50;78.60;;;;;;4955367;28;20625;-85
2023/12/29 00:25:39;;;;;;;10.20;3.10;;;8.40;78.60;;;;;;4956320;28;20212;-85
2023/12/29 00:28:08;;;;;;;2.50;2.30;;;8.40;78.90;;;;;;4954216;28;20213;-84
2023/12/29 00:30:40;;;;;;;6.93;4.53;;;8.30;79.00;;;;;;4952319;28;20253;-83
2023/12/29 00:33:27;;;;;;;2.20;1.90;;;8.30;78.90;;;;;;4955322;28;20723;-83
2023/12/29 00:35:57;;;;;;;5.40;3.47;;;8.30;79.10;;;;;;4953319;28;20237;-83
2023/12/29 00:38:28;;;;;;;7.77;4.23;;;8.30;79.20;;;;;;4954471;28;20210;-82
2023/12/29 00:40:57;;;;;;;2.07;1.83;;;8.20;79.30;;;;;;4956736;28;20220;-84
2023/12/29 00:43:26;;;;;;;2.10;1.80;;;8.20;79.30;;;;;;4954909;28;20623;-84
2023/12/29 00:45:55;;;;;;;3.97;3.60;;;8.20;79.40;;;;;;4954580;28;20581;-84
2023/12/29 00:48:24;;;;;;;3.23;2.93;;;8.20;79.40;;;;;;4961470;28;20203;-85
2023/12/29 00:50:53;;;;;;;8.87;3.77;;;8.20;79.40;;;;;;4960446;28;20217;-85
2023/12/29 00:53:21;;;;;;;1.60;1.50;;;8.10;79.30;;;;;;4955358;28;20217;-85
2023/12/29 00:55:52;;;;;;;4.40;2.83;;;8.20;79.50;;;;;;4958745;28;20634;-87
2023/12/29 00:58:21;;;;;;;5.63;3.13;;;8.10;79.40;;;;;;4958833;28;20264;-85
2023/12/29 01:00:50;;;;;;;3.97;3.03;;;8.10;79.40;;;;;;4957309;28;20514;-84
2023/12/29 01:03:20;;;;;;;10.73;4.77;;;8.10;79.60;;;;;;4960831;28;20207;-84
2023/12/29 01:05:52;;;;;;;4.20;3.80;;;8.10;79.60;;;;;;4962216;28;20217;-86
2023/12/29 01:08:21;;;;;;;7.60;3.43;;;8.10;79.40;;;;;;4959514;28;20199;-85
2023/12/29 01:10:51;;;;;;;4.20;2.30;;;8.10;79.40;;;;;;4956848;28;20526;-84
2023/12/29 01:13:20;;;;;;;6.30;4.17;;;8.10;79.30;;;;;;4961654;28;20265;-85
2023/12/29 01:15:49;;;;;;;22.17;3.07;;;8.10;79.30;;;;;;4958733;28;20297;-84
2023/12/29 01:18:17;;;;;;;2.87;2.60;;;8.10;79.30;;;;;;4963624;28;20701;-85
2023/12/29 01:20:46;;;;;;;2.60;1.70;;;8.10;79.20;;;;;;4955742;28;20227;-84
2023/12/29 01:23:15;;;;;;;4.37;2.63;;;8.10;79.10;;;;;;4958071;28;20311;-84
2023/12/29 01:25:44;;;;;;;7.67;3.20;;;8.10;79.00;;;;;;4957630;28;20215;-83
2023/12/29 01:28:14;;;;;;;5.40;2.63;;;8.10;79.00;;;;;;4955847;28;20203;-83
2023/12/29 01:30:43;;;;;;;2.83;2.60;;;8.00;78.80;;;;;;4951767;28;20258;-83
2023/12/29 01:33:12;;;;;;;3.73;3.37;;;8.00;78.70;;;;;;4953111;28;20211;-83
2023/12/29 01:35:41;;;;;;;3.80;2.47;;;8.00;78.70;;;;;;4951009;28;20215;-85
2023/12/29 01:38:09;;;;;;;4.67;3.30;;;8.00;78.60;;;;;;4953691;28;20257;-85
2023/12/29 01:40:45;;;;;;;2.77;2.50;;;8.00;78.60;;;;;;4956777;28;20214;-86
2023/12/29 01:43:16;;;;;;;3.43;3.13;;;8.00;78.60;;;;;;4952109;28;20221;-85
2023/12/29 01:45:48;;;;;;;2.73;2.53;;;8.00;78.60;;;;;;4954249;28;20293;-85
2023/12/29 01:48:25;;;;;;;3.53;3.23;;;7.90;78.50;;;;;;4954832;28;20216;-84
2023/12/29 01:50:57;;;;;;;5.30;3.33;;;7.90;78.70;;;;;;4954513;28;20209;-85
2023/12/29 01:53:26;;;;;;;8.67;3.10;;;7.80;78.70;;;;;;4953427;28;20207;-86
2023/12/29 01:56:10;;;;;;;5.93;2.77;;;7.80;78.80;;;;;;4952586;28;20203;-86
2023/12/29 01:58:40;;;;;;;3.57;3.20;;;7.70;79.10;;;;;;4957437;28;20391;-86
2023/12/29 02:01:12;;;;;;;3.27;2.97;;;7.70;79.40;;;;;;4947622;28;20279;-85
2023/12/29 02:03:43;;;;;;;3.70;3.20;;;7.60;79.40;;;;;;4951313;28;20237;-84
2023/12/29 02:06:14;;;;;;;3.33;2.73;;;7.60;79.50;;;;;;4951626;28;20199;-84
2023/12/29 02:08:45;;;;;;;3.83;2.03;;;7.50;79.90;;;;;;4957632;28;20206;-86
2023/12/29 02:11:15;;;;;;;2.63;2.43;;;7.40;80.30;;;;;;4953692;28;20570;-84
2023/12/29 02:13:45;;;;;;;9.83;4.70;;;7.30;80.60;;;;;;4956263;28;20317;-84
2023/12/29 02:16:23;;;;;;;5.30;3.33;;;7.20;80.90;;;;;;4956468;28;20484;-85
2023/12/29 02:18:52;;;;;;;4.17;2.97;;;7.20;81.20;;;;;;4951612;28;20206;-86
2023/12/29 02:21:25;;;;;;;5.70;3.50;;;7.20;81.30;;;;;;4956218;28;20222;-86
2023/12/29 02:23:54;;;;;;;3.20;2.90;;;7.10;81.60;;;;;;4956963;28;20202;-87
2023/12/29 02:26:28;;;;;;;4.33;3.87;;;7.10;81.50;;;;;;4953096;28;20268;-85
2023/12/29 02:29:03;;;;;;;4.07;3.07;;;7.10;81.40;;;;;;4956477;28;20224;-84
2023/12/29 02:31:45;;;;;;;8.23;4.20;;;7.00;81.70;;;;;;4962001;28;20284;-85
2023/12/29 02:34:16;;;;;;;4.27;3.67;;;7.00;81.70;;;;;;4956422;28;20197;-85
2023/12/29 02:36:47;;;;;;;7.20;3.73;;;6.90;81.70;;;;;;4958969;28;20899;-85
2023/12/29 02:39:16;;;;;;;4.20;3.57;;;6.90;81.70;;;;;;4956132;28;20493;-85
2023/12/29 02:41:47;;;;;;;3.57;2.27;;;6.90;81.90;;;;;;4955039;28;20216;-84
2023/12/29 02:44:16;;;;;;;7.23;4.03;;;6.80;82.20;;;;;;4959466;28;20220;-88
2023/12/29 02:46:44;;;;;;;3.30;2.50;;;6.80;82.30;;;;;;4960312;28;20205;-87
2023/12/29 02:49:13;;;;;;;5.97;2.70;;;6.70;82.50;;;;;;4960563;28;20205;-87
2023/12/29 02:51:44;;;;;;;6.93;4.30;;;6.70;82.60;;;;;;4956065;28;20241;-87
2023/12/29 02:54:12;;;;;;;2.43;2.23;;;6.60;82.70;;;;;;4955925;28;20212;-86
2023/12/29 02:56:41;;;;;;;3.10;2.90;;;6.60;82.80;;;;;;4955012;28;20197;-83
2023/12/29 02:59:11;;;;;;;4.20;3.80;;;6.50;82.90;;;;;;4955106;28;20219;-85
2023/12/29 03:01:40;;;;;;;10.57;3.67;;;6.50;83.00;;;;;;4950893;28;20305;-84
2023/12/29 03:04:09;;;;;;;4.33;4.03;;;6.40;83.20;;;;;;4952904;28;20649;-85
2023/12/29 03:06:37;;;;;;;4.53;4.10;;;6.40;83.40;;;;;;4955327;28;20207;-85
2023/12/29 03:09:06;;;;;;;3.50;3.20;;;6.40;83.60;;;;;;4951991;28;20196;-87
2023/12/29 03:11:35;;;;;;;6.70;3.37;;;6.40;83.60;;;;;;4960338;28;20661;-86
2023/12/29 03:14:07;;;;;;;4.93;3.83;;;6.30;83.60;;;;;;4958484;28;20202;-87
2023/12/29 03:16:37;;;;;;;4.73;3.67;;;6.30;83.90;;;;;;4960631;28;20217;-89
2023/12/29 03:19:05;;;;;;;3.50;2.60;;;6.20;83.90;;;;;;4958041;28;20325;-88
2023/12/29 03:21:34;;;;;;;8.37;2.90;;;6.20;84.10;;;;;;4959242;28;20263;-88
2023/12/29 03:24:03;;;;;;;8.47;3.47;;;6.20;84.20;;;;;;4957309;28;21005;-87
2023/12/29 03:26:40;;;;;;;14.33;4.33;;;6.10;84.30;;;;;;4957450;28;20540;-87
2023/12/29 03:29:09;;;;;;;5.33;3.30;;;6.10;84.40;;;;;;4954671;28;20208;-88
2023/12/29 03:31:39;;;;;;;3.63;3.33;;;6.10;84.30;;;;;;4954965;28;20288;-89
2023/12/29 03:34:08;;;;;;;5.23;4.47;;;6.10;84.40;;;;;;4957254;28;20211;-88
2023/12/29 03:36:37;;;;;;;5.83;3.47;;;6.10;84.30;;;;;;4953397;28;20662;-86
2023/12/29 03:39:07;;;;;;;4.17;3.77;;;6.00;84.50;;;;;;4896380;28;20206;-84
2023/12/29 03:41:35;;;;;;;4.77;3.40;;;6.00;84.50;;;;;;4959256;28;20610;-87
2023/12/29 03:44:19;;;;;;;4.70;3.23;;;6.00;84.70;;;;;;4953702;28;20421;-87
2023/12/29 03:46:51;;;;;;;8.43;4.40;;;6.00;84.70;;;;;;4950113;28;20221;-86
2023/12/29 03:49:20;;;;;;;5.90;4.07;;;6.00;84.90;;;;;;4948936;28;20206;-86
2023/12/29 03:51:49;;;;;;;5.30;2.53;;;5.90;85.10;;;;;;4954626;28;20305;-86
2023/12/29 03:54:21;;;;;;;6.73;4.13;;;5.90;85.20;;;;;;4951658;28;20273;-86
2023/12/29 03:56:50;;;;;;;2.93;2.73;;;5.80;85.30;;;;;;4951754;28;20254;-86
2023/12/29 03:59:18;;;;;;;3.30;3.03;;;5.80;85.50;;;;;;4968726;28;20288;-86
2023/12/29 04:01:49;;;;;;;1.83;1.73;;;5.80;85.50;;;;;;4971935;28;20203;-85
2023/12/29 04:04:18;;;;;;;3.57;2.90;;;5.80;85.50;;;;;;4972803;28;20204;-85
2023/12/29 04:06:49;;;;;;;7.23;2.40;;;5.80;85.50;;;;;;4976385;28;20205;-83
2023/12/29 04:09:20;;;;;;;4.93;4.43;;;5.70;85.70;;;;;;4974270;28;20212;-84
2023/12/29 04:11:48;;;;;;;2.80;2.60;;;5.70;85.90;;;;;;4979474;28;20264;-85
2023/12/29 04:14:17;;;;;;;6.90;4.37;;;5.70;85.90;;;;;;4980468;28;20659;-86
2023/12/29 04:16:46;;;;;;;8.97;4.83;;;5.70;85.80;;;;;;4975138;28;20194;-86
2023/12/29 04:19:18;;;;;;;9.43;6.00;;;5.70;85.90;;;;;;4979902;28;20281;-87
2023/12/29 04:21:47;;;;;;;5.70;4.30;;;5.70;86.20;;;;;;4976198;28;20224;-87
2023/12/29 04:24:18;;;;;;;5.67;3.73;;;5.60;86.60;;;;;;4973322;28;20920;-84
2023/12/29 04:26:47;;;;;;;3.53;3.20;;;5.50;87.00;;;;;;4973087;28;20232;-84
2023/12/29 04:29:16;;;;;;;4.50;3.17;;;5.50;87.20;;;;;;4971841;28;20202;-87
2023/12/29 04:31:45;;;;;;;7.97;5.50;;;5.50;87.40;;;;;;4974749;28;20231;-85
2023/12/29 04:34:15;;;;;;;10.27;6.37;;;5.50;87.90;;;;;;4969573;28;20196;-87
2023/12/29 04:36:45;;;;;;;4.13;3.37;;;5.50;88.10;;;;;;4975428;28;20234;-90
2023/12/29 04:39:14;;;;;;;7.20;5.30;;;5.50;88.10;;;;;;4971629;28;20212;-86
2023/12/29 04:41:42;;;;;;;3.13;2.87;;;5.50;88.30;;;;;;4973733;28;20605;-87
2023/12/29 04:44:12;;;;;;;8.23;7.00;;;5.50;88.40;;;;;;4974946;28;20309;-86
2023/12/29 04:46:40;;;;;;;9.27;3.80;;;5.50;88.70;;;;;;4978012;28;20208;-87
2023/12/29 04:49:18;;;;;;;9.93;3.77;;;5.50;89.10;;;;;;4976858;28;20279;-88
2023/12/29 04:51:49;;;;;;;6.77;3.87;;;5.50;88.80;;;;;;4976915;28;20227;-88
2023/12/29 04:54:17;;;;;;;4.23;3.90;;;5.60;88.50;;;;;;4973475;28;20240;-87
2023/12/29 04:56:46;;;;;;;4.17;3.53;;;5.60;88.40;;;;;;4975890;28;20224;-86
2023/12/29 04:59:23;;;;;;;5.37;4.37;;;5.60;89.30;;;;;;4977104;28;20230;-87
2023/12/29 05:01:51;;;;;;;8.20;4.33;;;5.60;88.60;;;;;;4973150;28;20318;-88
2023/12/29 05:04:20;;;;;;;13.67;5.23;;;5.60;88.30;;;;;;4972303;28;20232;-87
2023/12/29 05:06:50;;;;;;;5.70;4.23;;;5.60;88.60;;;;;;4969405;28;20221;-85
2023/12/29 05:09:19;;;;;;;2.67;2.47;;;5.50;88.80;;;;;;4973269;28;20212;-83
2023/12/29 05:11:51;;;;;;;4.20;3.80;;;5.60;88.60;;;;;;4969510;28;20299;-86
2023/12/29 05:14:19;;;;;;;5.27;4.87;;;5.60;88.30;;;;;;4976675;28;20283;-84
2023/12/29 05:16:48;;;;;;;15.67;6.03;;;5.60;88.50;;;;;;4976551;28;20216;-86
2023/12/29 05:19:17;;;;;;;7.73;6.10;;;5.70;88.30;;;;;;4978866;28;20197;-86
2023/12/29 05:21:49;;;;;;;6.10;4.43;;;5.70;88.20;;;;;;4984336;28;20214;-83
2023/12/29 05:24:21;;;;;;;2.93;2.73;;;5.70;88.30;;;;;;4972298;28;20235;-85
2023/12/29 05:26:49;;;;;;;9.13;6.77;;;5.70;88.20;;;;;;4976397;28;20208;-86
2023/12/29 05:29:18;;;;;;;6.50;5.60;;;5.70;88.10;;;;;;4976770;28;20212;-87
2023/12/29 05:31:47;;;;;;;6.33;5.43;;;5.70;88.00;;;;;;4976109;28;20629;-87
2023/12/29 05:34:15;;;;;;;4.70;4.33;;;5.70;88.00;;;;;;4969599;28;20216;-88
2023/12/29 05:36:47;;;;;;;6.93;5.97;;;5.80;87.90;;;;;;4973828;28;20202;-87
2023/12/29 05:39:19;;;;;;;5.83;4.50;;;5.80;87.70;;;;;;4975932;28;20213;-89
2023/12/29 05:41:48;;;;;;;14.00;6.43;;;5.80;87.50;;;;;;4977803;28;20204;-86
2023/12/29 05:44:17;;;;;;;8.73;5.67;;;5.80;87.50;;;;;;4965199;28;20225;-87
2023/12/29 05:46:47;;;;;;;6.20;5.60;;;5.80;87.50;;;;;;4974220;28;20249;-89
2023/12/29 05:49:16;;;;;;;4.10;3.00;;;5.90;87.50;;;;;;4968790;28;20295;-85
2023/12/29 05:51:46;;;;;;;12.53;5.17;;;5.90;87.40;;;;;;4973480;28;20211;-87
2023/12/29 05:54:14;;;;;;;5.77;4.37;;;5.90;87.20;;;;;;4973263;28;20539;-85
2023/12/29 05:56:45;;;;;;;6.67;6.00;;;5.90;87.40;;;;;;4975964;28;20268;-81
2023/12/29 05:59:16;;;;;;;3.40;3.10;;;5.90;87.50;;;;;;4966069;28;20248;-83
2023/12/29 06:01:46;;;;;;;7.70;4.33;;;6.00;88.10;;;;;;4968497;28;20292;-85
2023/12/29 06:04:14;;;;;;;9.03;4.07;;;6.00;87.10;;;;;;4962853;28;20296;-88
2023/12/29 06:06:43;;;;;;;7.70;5.73;;;6.10;87.00;;;;;;4971650;28;20194;-84
2023/12/29 06:09:12;;;;;;;8.67;3.30;;;6.10;86.80;;;;;;4968945;28;20207;-83
2023/12/29 06:11:41;;;;;;;4.60;3.80;;;6.10;87.40;;;;;;4971954;28;20555;-83
2023/12/29 06:14:17;;;;;;;3.63;3.33;;;6.20;86.50;;;;;;4971035;28;20509;-85
2023/12/29 06:16:47;;;;;;;9.20;5.50;;;6.20;86.30;;;;;;4969249;28;20821;-87
2023/12/29 06:19:20;;;;;;;6.10;5.27;;;6.10;86.60;;;;;;4972531;28;20259;-86
2023/12/29 06:21:49;;;;;;;6.13;5.53;;;6.10;86.60;;;;;;4977556;28;20212;-84
2023/12/29 06:24:18;;;;;;;8.07;5.43;;;6.10;86.80;;;;;;4972710;28;20906;-84
2023/12/29 06:26:51;;;;;;;5.57;5.13;;;6.10;86.90;;;;;;4972961;28;20243;-84
2023/12/29 06:29:24;;;;;;;7.27;6.53;;;6.00;87.00;;;;;;4970467;28;20253;-86
2023/12/29 06:31:52;;;;;;;4.30;3.90;;;6.00;87.50;;;;;;4974636;28;20199;-84
2023/12/29 06:34:24;;;;;;;5.90;3.93;;;6.00;87.60;;;;;;4972271;28;20202;-85
2023/12/29 06:36:53;;;;;;;8.33;6.43;;;6.00;87.70;;;;;;4970870;28;20289;-84
2023/12/29 06:39:23;;;;;;;3.60;3.30;;;6.00;87.70;;;;;;4976313;28;20267;-85
2023/12/29 06:42:11;;;;;;;13.27;6.90;;;6.00;87.80;;;;;;4969828;28;20719;-84
2023/12/29 06:44:47;;;;;;;6.20;4.17;;;6.00;87.90;;;;;;4975029;28;20231;-87
2023/12/29 06:47:16;;;;;;;6.00;5.27;;;6.00;88.20;;;;;;4987361;28;20263;-84
2023/12/29 06:49:49;;;;;;;10.82;7.25;;;5.90;88.40;;;;;;4976184;28;20534;-87
2023/12/29 06:52:18;;;;;;;7.00;4.33;;;5.90;88.60;;;;;;4977903;28;20611;-88
2023/12/29 06:54:47;;;;;;;10.00;5.37;;;5.90;88.40;;;;;;4966771;28;20861;-86
2023/12/29 06:57:16;;;;;;;10.67;5.03;;;5.90;88.60;;;;;;4975695;28;20197;-90
2023/12/29 06:59:47;;;;;;;6.40;5.77;;;5.90;88.80;;;;;;4981224;28;20304;-90
2023/12/29 07:02:15;;;;;;;8.67;5.63;;;5.90;88.80;;;;;;4975637;28;20231;-88
2023/12/29 07:04:44;;;;;;;9.73;6.20;;;5.90;89.30;;;;;;4974176;28;20226;-88
2023/12/29 07:07:13;;;;;;;8.87;5.07;;;5.90;89.40;;;;;;4975001;28;20268;-89
2023/12/29 07:09:42;;;;;;;6.77;6.03;;;5.80;89.50;;;;;;4969567;28;20202;-87
2023/12/29 07:12:11;;;;;;;4.50;4.17;;;5.90;90.20;;;;;;4974568;28;20231;-85
2023/12/29 07:14:42;;;;;;;9.80;5.60;;;5.90;89.90;;;;;;4971285;28;20631;-86
2023/12/29 07:17:13;;;;;;;10.00;6.73;;;5.90;89.80;;;;;;4969310;28;20214;-84
2023/12/29 07:19:41;;;;;;;4.53;4.13;;;5.90;90.00;;;;;;4971964;28;20210;-90
2023/12/29 07:22:11;;;;;;;7.60;6.77;;;5.90;89.90;;;;;;4971755;28;20219;-84
2023/12/29 07:24:40;;;;;;;7.57;6.00;;;6.00;90.00;;;;;;4973035;28;20319;-86
2023/12/29 07:27:09;;;;;;;6.90;4.87;;;6.00;90.00;;;;;;4975450;28;20638;-87
2023/12/29 07:29:38;;;;;;;8.80;6.57;;;6.00;89.90;;;;;;4971877;28;20215;-86
2023/12/29 07:32:07;;;;;;;9.50;6.30;;;6.00;89.90;;;;;;4968555;28;20206;-89
2023/12/29 07:34:38;;;;;;;4.60;4.17;;;6.10;89.90;;;;;;4970925;28;20304;-85
2023/12/29 07:37:07;;;;;;;10.53;8.00;;;6.10;89.90;;;;;;4970476;28;20303;-85
2023/12/29 07:39:38;;;;;;;20.87;8.00;;;6.20;89.90;;;;;;4967156;28;20209;-89
2023/12/29 07:42:07;;;;;;;9.60;5.03;;;6.20;89.70;;;;;;4976508;28;20198;-90
2023/12/29 07:44:38;;;;;;;7.90;6.13;;;6.30;89.60;;;;;;4983180;28;20221;-89
2023/12/29 07:47:07;;;;;;;7.70;6.17;;;6.30;89.60;;;;;;4983582;28;20202;-88
2023/12/29 07:49:38;;;;;;;12.17;5.77;;;6.40;89.50;;;;;;4973957;28;20654;-89
2023/12/29 07:52:07;;;;;;;14.53;6.50;;;6.40;89.40;;;;;;4975564;28;20202;-91
2023/12/29 07:54:37;;;;;;;5.17;4.60;;;6.50;89.20;;;;;;4982525;28;20208;-89
2023/12/29 07:57:06;;;;;;;5.57;4.60;;;6.60;89.20;;;;;;4987031;28;21690;-88
2023/12/29 07:59:34;;;;;;;12.00;5.63;;;6.60;89.30;;;;;;4979858;28;20360;-88
2023/12/29 08:02:03;;;;;;;13.77;7.90;;;6.60;89.20;;;;;;4978025;28;20617;-88
2023/12/29 08:04:32;;;;;;;10.13;6.90;;;6.70;89.20;;;;;;4970745;28;20241;-90
2023/12/29 08:07:06;;;;;;;14.67;6.43;;;6.80;88.90;;;;;;4980217;28;20201;-88
2023/12/29 08:09:57;;;;;;;6.40;4.23;;;6.90;88.90;;;;;;4972925;28;20209;-87
2023/12/29 08:12:28;;;;;;;7.80;5.70;;;7.00;88.70;;;;;;4983824;28;20195;-89
2023/12/29 08:14:57;;;;;;;4.63;4.20;;;7.10;88.70;;;;;;4975839;28;21875;-88
2023/12/29 08:17:26;;;;;;;4.57;3.77;;;7.20;88.60;;;;;;4979879;28;20299;-90
2023/12/29 08:19:57;;;;;;;11.20;6.47;;;7.30;88.60;;;;;;4973450;28;20213;-91
2023/12/29 08:22:30;;;;;;;7.37;6.40;;;7.50;88.50;;;;;;4982443;28;20188;-87
2023/12/29 08:24:59;;;;;;;12.07;6.17;;;7.60;87.50;;;;;;4979121;28;20690;-87
2023/12/29 08:27:28;;;;;;;5.87;4.63;;;7.60;88.00;;;;;;4981642;28;20653;-90
2023/12/29 08:29:57;;;;;;;3.53;3.23;;;7.70;87.10;;;;;;4977289;28;20198;-86
2023/12/29 08:32:26;;;;;;;8.90;4.53;;;7.80;86.60;;;;;;4976208;28;20201;-90
2023/12/29 08:34:55;;;;;;;9.40;5.07;;;7.90;86.50;;;;;;4976358;28;20203;-90
2023/12/29 08:37:24;;;;;;;14.33;8.07;;;8.10;86.80;;;;;;4974737;28;20194;-90
2023/12/29 08:39:55;;;;;;;3.67;3.40;;;8.10;85.80;;;;;;4978941;28;20214;-87
2023/12/29 08:42:26;;;;;;;8.53;5.37;;;8.20;85.80;;;;;;4982588;28;20209;-95
2023/12/29 08:44:55;;;;;;;5.10;4.60;;;8.30;85.20;;;;;;4979543;28;20272;-93
2023/12/29 08:47:24;;;;;;;13.10;4.20;;;8.30;85.20;;;;;;4978387;28;20197;-85
2023/12/29 08:49:54;;;;;;;7.30;4.60;;;8.40;84.70;;;;;;4974836;28;20237;-89
2023/12/29 08:52:23;;;;;;;8.73;5.20;;;8.50;84.30;;;;;;4981803;28;20204;-88
2023/12/29 08:54:52;;;;;;;12.30;4.20;;;8.60;84.70;;;;;;4974743;28;20232;-87
2023/12/29 08:57:23;;;;;;;4.67;4.20;;;8.60;84.20;;;;;;4981686;28;20405;-88
2023/12/29 08:59:52;;;;;;;11.17;6.00;;;8.80;84.20;;;;;;4975507;28;20237;-92
2023/12/29 09:02:22;;;;;;;5.03;4.43;;;8.90;84.10;;;;;;4989198;28;20222;-91
2023/12/29 09:04:51;;;;;;;4.50;3.03;;;8.90;83.60;;;;;;4985668;28;20237;-87
2023/12/29 09:07:20;;;;;;;5.30;2.63;;;8.90;83.60;;;;;;4972879;28;20297;-90
2023/12/29 09:09:49;;;;;;;8.27;3.43;;;9.00;83.30;;;;;;4977388;28;20208;-87
2023/12/29 09:12:18;;;;;;;6.87;3.97;;;9.10;83.10;;;;;;4975564;28;20201;-88
2023/12/29 09:14:49;;;;;;;9.93;5.83;;;9.20;83.00;;;;;;4976142;28;20454;-90
2023/12/29 09:17:18;;;;;;;6.20;4.87;;;9.30;82.30;;;;;;4977804;28;20523;-87
2023/12/29 09:19:48;;;;;;;7.50;4.93;;;9.30;82.20;;;;;;4974573;28;20212;-88
2023/12/29 09:22:27;;;;;;;10.30;6.20;;;9.30;81.90;;;;;;4970966;28;20205;-89
2023/12/29 09:24:56;;;;;;;9.83;6.13;;;9.40;81.90;;;;;;4976896;28;20688;-88
2023/12/29 09:27:25;;;;;;;5.63;4.53;;;9.50;81.70;;;;;;4974478;28;20238;-86
2023/12/29 09:29:56;;;;;;;5.73;4.17;;;9.60;82.60;;;;;;4972791;28;20394;-88
2023/12/29 09:32:25;;;;;;;10.37;5.13;;;9.60;81.60;;;;;;4982208;28;20870;-88
2023/12/29 09:34:54;;;;;;;5.57;5.00;;;9.70;81.40;;;;;;4975627;28;20205;-85
2023/12/29 09:37:23;;;;;;;6.33;3.43;;;9.70;81.20;;;;;;4966330;28;20229;-83
2023/12/29 09:39:52;;;;;;;5.87;5.27;;;9.80;81.10;;;;;;4974362;28;20206;-85
2023/12/29 09:42:23;;;;;;;4.77;3.90;;;9.90;80.80;;;;;;4963316;28;20310;-90
2023/12/29 09:44:52;;;;;;;7.30;4.87;;;10.00;81.10;;;;;;4973699;28;20206;-89
2023/12/29 09:47:25;;;;;;;5.57;5.03;;;10.10;81.00;;;;;;4983486;28;20649;-90
2023/12/29 09:49:54;;;;;;;9.23;4.87;;;10.20;81.10;;;;;;4978612;28;20202;-89
2023/12/29 09:52:24;;;;;;;7.40;5.73;;;10.30;80.80;;;;;;4977457;28;20237;-89
2023/12/29 09:54:53;;;;;;;5.87;5.20;;;10.40;80.50;;;;;;4972497;28;20670;-87
2023/12/29 09:57:23;;;;;;;4.03;2.83;;;10.50;80.40;;;;;;4974607;28;20201;-90
2023/12/29 09:59:52;;;;;;;8.07;4.27;;;10.60;80.40;;;;;;4974509;28;20223;-90
2023/12/29 10:02:23;;;;;;;6.27;4.30;;;10.70;80.20;;;;;;4976668;28;20268;-90
2023/12/29 10:04:52;;;;;;;9.13;5.33;;;10.80;79.70;;;;;;4969615;28;20210;-86
2023/12/29 10:07:26;;;;;;;12.10;5.33;;;10.80;79.10;;;;;;4971610;28;20576;-87
2023/12/29 10:09:58;;;;;;;4.30;3.03;;;10.90;79.00;;;;;;4968927;28;20209;-89
2023/12/29 10:12:29;;;;;;;4.17;2.30;;;11.00;78.70;;;;;;4974440;28;20233;-87
2023/12/29 10:15:07;;;;;;;6.03;3.57;;;11.00;78.20;;;;;;4975419;28;20256;-85
2023/12/29 10:17:44;;;;;;;9.20;5.90;;;11.10;78.40;;;;;;4968083;28;20197;-89
2023/12/29 10:20:25;;;;;;;3.37;3.07;;;11.20;78.00;;;;;;4977038;28;20217;-88
2023/12/29 10:23:06;;;;;;;6.30;4.20;;;11.20;77.60;;;;;;4978994;28;20210;-89
2023/12/29 10:25:36;;;;;;;5.93;3.07;;;11.30;77.00;;;;;;4979919;28;20229;-90
2023/12/29 10:28:06;;;;;;;4.43;3.33;;;11.30;76.90;;;;;;4978691;28;20354;-89
2023/12/29 10:30:36;;;;;;;8.13;3.67;;;11.40;77.10;;;;;;4975386;28;20648;-89
2023/12/29 10:33:08;;;;;;;2.97;2.47;;;11.50;77.40;;;;;;4976524;28;20229;-90
2023/12/29 10:35:39;;;;;;;5.73;3.93;;;11.60;77.10;;;;;;4970331;28;20201;-88
2023/12/29 10:38:11;;;;;;;10.03;4.83;;;11.60;76.40;;;;;;4986663;28;20197;-91
2023/12/29 10:40:42;;;;;;;3.70;3.33;;;11.70;76.80;;;;;;4978157;28;20276;-88
2023/12/29 10:43:11;;;;;;;6.07;4.27;;;11.80;76.90;;;;;;4974880;28;20209;-88
2023/12/29 10:45:41;;;;;;;6.53;4.77;;;11.90;76.70;;;;;;4973935;28;20193;-88
2023/12/29 10:48:11;;;;;;;11.83;5.17;;;12.00;76.60;;;;;;4975536;28;20217;-86
2023/12/29 10:50:46;;;;;;;5.93;3.37;;;12.00;75.70;;;;;;4983281;28;20206;-86
2023/12/29 10:53:16;;;;;;;6.30;4.13;;;12.10;76.00;;;;;;4969724;28;20649;-86
2023/12/29 10:55:45;;;;;;;3.50;2.63;;;12.10;75.40;;;;;;4975694;28;20206;-86
2023/12/29 10:58:19;;;;;;;6.00;4.07;;;12.20;75.70;;;;;;4979052;28;20234;-88
2023/12/29 11:00:48;;;;;;;5.40;3.43;;;12.30;76.00;;;;;;4978957;28;20613;-86
2023/12/29 11:03:19;;;;;;;5.87;4.70;;;12.30;75.30;;;;;;4974249;28;20206;-89
2023/12/29 11:05:48;;;;;;;5.17;4.53;;;12.30;74.70;;;;;;4978439;28;20340;-89
2023/12/29 11:08:17;;;;;;;3.03;2.80;;;12.40;75.00;;;;;;4979367;28;20201;-91
2023/12/29 11:10:46;;;;;;;4.23;3.23;;;12.40;74.70;;;;;;4975440;28;20206;-90
2023/12/29 11:13:16;;;;;;;3.67;2.23;;;12.50;74.50;;;;;;4980533;28;20251;-88
2023/12/29 11:15:48;;;;;;;3.43;2.50;;;12.50;74.50;;;;;;4978931;28;20233;-89
2023/12/29 11:18:19;;;;;;;8.20;3.63;;;12.60;74.60;;;;;;4986121;28;20233;-88
2023/12/29 11:20:48;;;;;;;3.97;3.33;;;12.60;74.70;;;;;;4979150;28;20205;-91
2023/12/29 11:23:18;;;;;;;9.33;3.00;;;12.70;74.60;;;;;;4980834;28;20220;-87
2023/12/29 11:25:48;;;;;;;6.83;3.63;;;12.80;74.70;;;;;;4977584;28;20210;-88
2023/12/29 11:28:18;;;;;;;4.70;2.77;;;12.80;74.40;;;;;;4975698;28;20202;-86
2023/12/29 11:30:47;;;;;;;6.27;2.80;;;12.90;74.50;;;;;;4971784;28;20572;-87
2023/12/29 11:33:23;;;;;;;5.67;2.87;;;13.00;73.70;;;;;;4974499;28;20202;-84
2023/12/29 11:35:56;;;;;;;3.63;2.97;;;13.10;73.70;;;;;;4977930;28;20224;-86
2023/12/29 11:38:43;;;;;;;4.57;3.13;;;13.10;73.60;;;;;;4979720;28;20547;-86
2023/12/29 11:41:18;;;;;;;1.83;1.60;;;13.20;73.70;;;;;;4980114;28;20299;-85
2023/12/29 11:43:57;;;;;;;2.67;2.47;;;13.30;73.70;;;;;;4976730;28;20741;-83
2023/12/29 11:46:36;;;;;;;5.90;2.40;;;13.30;73.60;;;;;;4974930;28;20576;-83
2023/12/29 11:49:06;;;;;;;5.33;3.20;;;13.40;73.30;;;;;;4968243;28;20741;-81
2023/12/29 11:51:37;;;;;;;9.20;4.13;;;13.40;73.20;;;;;;4967395;28;20198;-82
2023/12/29 11:54:07;;;;;;;4.47;3.07;;;13.60;73.10;;;;;;4972611;28;20206;-82
2023/12/29 11:56:37;;;;;;;4.10;2.23;;;13.60;73.40;;;;;;4967452;28;20268;-81
2023/12/29 11:59:24;;;;;;;3.20;2.93;;;13.70;73.10;;;;;;4971163;28;20234;-81
2023/12/29 12:01:54;;;;;;;12.07;2.93;;;13.80;72.80;;;;;;4969117;28;20206;-82
2023/12/29 12:04:39;;;;;;;6.27;2.87;;;13.90;72.40;;;;;;4969157;28;20194;-81
2023/12/29 12:07:13;;;;;;;3.00;2.57;;;13.90;72.60;;;;;;4974936;28;20618;-81
2023/12/29 12:09:43;;;;;;;5.57;2.43;;;14.00;72.20;;;;;;4975902;28;20230;-80
2023/12/29 12:12:12;;;;;;;4.63;2.30;;;14.10;72.10;;;;;;4974596;28;20209;-81
2023/12/29 12:14:48;;;;;;;3.90;2.87;;;14.10;71.90;;;;;;4975110;28;20194;-84
2023/12/29 12:17:33;;;;;;;3.27;2.97;;;14.20;71.60;;;;;;4982547;28;20206;-82
2023/12/29 12:20:09;;;;;;;5.87;4.17;;;14.20;71.10;;;;;;4976033;28;20197;-81
2023/12/29 12:22:38;;;;;;;3.37;2.37;;;14.20;70.70;;;;;;4973305;28;20197;-82
2023/12/29 12:25:09;;;;;;;3.90;2.40;;;14.30;70.70;;;;;;4975779;28;20210;-83
2023/12/29 12:27:39;;;;;;;5.13;2.80;;;14.40;70.00;;;;;;4979126;28;20248;-81
2023/12/29 12:30:09;;;;;;;3.03;2.10;;;14.40;69.70;;;;;;4982505;28;20208;-81
2023/12/29 12:32:39;;;;;;;1.87;1.40;;;14.50;69.70;;;;;;4975896;28;20579;-81
2023/12/29 12:35:17;;;;;;;4.40;1.43;;;14.50;69.50;;;;;;4976875;28;20202;-81
2023/12/29 12:37:48;;;;;;;2.17;1.83;;;14.60;70.30;;;;;;4973716;28;20216;-82
2023/12/29 12:40:27;;;;;;;3.27;1.87;;;14.70;70.30;;;;;;4972794;28;20237;-81
2023/12/29 12:42:56;;;;;;;1.97;1.70;;;14.80;70.30;;;;;;4979309;28;20260;-83
2023/12/29 12:45:28;;;;;;;6.87;2.43;;;14.90;70.30;;;;;;4981097;28;20273;-81
2023/12/29 12:48:04;;;;;;;5.10;1.97;;;14.80;69.70;;;;;;4977013;28;20769;-82
2023/12/29 12:50:34;;;;;;;2.97;2.10;;;14.80;69.60;;;;;;4971883;28;20248;-82
2023/12/29 12:53:09;;;;;;;2.83;2.20;;;14.80;69.60;;;;;;4977515;28;20568;-81
2023/12/29 12:55:39;;;;;;;1.43;1.27;;;14.80;69.60;;;;;;4970046;28;20220;-82
2023/12/29 12:58:07;;;;;;;2.17;1.47;;;14.80;70.00;;;;;;4969474;28;20757;-82
2023/12/29 13:00:36;;;;;;;9.43;2.30;;;14.70;70.30;;;;;;4975705;28;20198;-81
2023/12/29 13:03:06;;;;;;;3.07;2.00;;;14.80;70.30;;;;;;4970682;28;20202;-81
2023/12/29 13:05:37;;;;;;;3.10;2.23;;;14.90;70.90;;;;;;4982400;28;20280;-82
2023/12/29 13:08:07;;;;;;;3.97;2.63;;;15.00;71.00;;;;;;4974519;28;20233;-81
2023/12/29 13:10:42;;;;;;;2.20;1.67;;;15.20;71.30;;;;;;4970321;28;20257;-81